Main page
METAR-TAF:

METAR-TAF

Airports :

RAF Cranwell

Cranwell, England

latitude: 53-02N, longitude: 000-30W, elevation: 67 m

Current weather observation

The report was made 1 hour and 7 minutes ago, at 06:50 UTC
Wind 7 kt from the West
Temperature 4°C
Humidity 87%
Pressure 1030 hPa
Visibility 10 km or more

METAR: EGYD 240650Z AUTO 27007KT 9999 // NCD 04/02 Q1030

Time: 07:57 (07:57 UTC)

Forecast

The report was made 1 hour and 29 minutes ago, at 06:28 UTC
Forecast valid from 24 at 07 UTC to 24 at 15 UTC
Wind 5 kt from the West/Northwest
Visibility 10 km or more
Few clouds at a height of 3000 ft
Becoming
from 24 at 10 UTC to 24 at 13 UTC
Wind 15 kt from the North/Northwest with gusts up to 25 kt

TAF: EGYD 240628Z 2407/2415 30005KT 9999 FEW030 BECMG 2410/2413 33015G25KT

Weather observations and forecasts of more than 4000 airports (METAR and TAF reports).

The available stations are represented by yellow and red dots on the map.

Hover mouse over dot to see the name of the station.

Then click to see weather observations and forecasts.

To change the map : click on the green buttons with a black cross to zoom in, on the green button with a dash to zoom out, or on the green arrows for adjacent maps.


METAR-TAF: